createdAt,value
2023-01-08T00:00:52.918Z,99746.56
2023-01-08T00:03:20.799Z,99748.03
2023-01-08T00:05:48.888Z,99754.97
2023-01-08T00:08:16.615Z,99758.13
2023-01-08T00:10:44.402Z,99743.66
2023-01-08T00:13:12.636Z,99752.84
2023-01-08T00:15:40.400Z,99753.28
2023-01-08T00:18:08.137Z,99746.34
2023-01-08T00:20:36.004Z,99746.75
2023-01-08T00:23:03.665Z,99735.03
2023-01-08T00:25:31.426Z,99732.50
2023-01-08T00:27:59.154Z,99724.53
2023-01-08T00:30:27.065Z,99725.56
2023-01-08T00:32:54.814Z,99713.00
2023-01-08T00:35:22.768Z,99722.22
2023-01-08T00:37:50.486Z,99712.56
2023-01-08T00:40:18.196Z,99718.03
2023-01-08T00:42:45.917Z,99716.13
2023-01-08T00:45:15.561Z,99710.03
2023-01-08T00:47:43.319Z,99699.13
2023-01-08T00:50:11.062Z,99705.41
2023-01-08T00:52:40.970Z,99706.47
2023-01-08T00:55:08.713Z,99701.03
2023-01-08T00:57:36.545Z,99695.56
2023-01-08T01:00:04.262Z,99691.38
2023-01-08T01:02:32.008Z,99695.78
2023-01-08T01:04:59.767Z,99697.66
2023-01-08T01:07:27.498Z,99690.53
2023-01-08T01:09:55.212Z,99683.38
2023-01-08T01:12:22.937Z,99686.13
2023-01-08T01:14:50.658Z,99677.09
2023-01-08T01:17:18.372Z,99670.81
2023-01-08T01:19:46.134Z,99670.81
2023-01-08T01:22:13.887Z,99680.03
2023-01-08T01:24:41.750Z,99685.47
2023-01-08T01:27:09.452Z,99690.09
2023-01-08T01:29:37.179Z,99684.63
2023-01-08T01:32:06.173Z,99678.34
2023-01-08T01:34:33.956Z,99679.19
2023-01-08T01:37:01.717Z,99675.63
2023-01-08T01:39:29.478Z,99675.63
2023-01-08T01:41:57.225Z,99672.91
2023-01-08T01:44:25.026Z,99671.22
2023-01-08T01:46:52.759Z,99675.81
2023-01-08T01:49:20.469Z,99679.41
2023-01-08T01:51:55.095Z,99676.69
2023-01-08T01:54:24.707Z,99672.25
2023-01-08T01:56:52.466Z,99673.97
2023-01-08T01:59:20.413Z,99660.34
2023-01-08T02:18:18.817Z,99668.69
2023-01-08T02:20:46.774Z,99653.59
2023-01-08T02:26:49.370Z,99651.28
2023-01-08T02:43:59.062Z,99615.44
2023-01-08T02:46:26.886Z,99609.13
2023-01-08T02:48:54.697Z,99601.81
2023-01-08T02:51:22.509Z,99600.13
2023-01-08T02:53:50.302Z,99599.09
2023-01-08T02:56:18.121Z,99599.94
2023-01-08T02:58:47.566Z,99593.66
2023-01-08T03:01:16.110Z,99592.78
2023-01-08T03:03:43.933Z,99604.31
2023-01-08T03:06:11.848Z,99601.59
2023-01-08T03:08:39.649Z,99601.59
2023-01-08T03:11:07.398Z,99604.31
2023-01-08T03:13:35.249Z,99600.75
2023-01-08T03:16:03.020Z,99601.59
2023-01-08T03:18:30.796Z,99603.28
2023-01-08T03:20:58.601Z,99603.28
2023-01-08T03:23:26.399Z,99603.28
2023-01-08T03:25:54.533Z,99616.69
2023-01-08T03:28:22.359Z,99614.19
2023-01-08T03:30:50.223Z,99616.69
2023-01-08T03:33:18.001Z,99611.88
2023-01-08T03:35:45.741Z,99602.88
2023-01-08T03:38:13.518Z,99597.41
2023-01-08T03:40:41.322Z,99590.28
2023-01-08T03:43:09.082Z,99593.00
2023-01-08T03:45:36.798Z,99585.88
2023-01-08T03:48:04.606Z,99589.44
2023-01-08T03:50:32.353Z,99587.78
2023-01-08T03:53:01.012Z,99592.41
2023-01-08T03:55:29.019Z,99592.41
2023-01-08T03:57:56.800Z,99586.06
2023-01-08T04:00:24.560Z,99583.34
2023-01-08T04:02:52.367Z,99579.78
2023-01-08T04:05:20.150Z,99587.31
2023-01-08T04:07:47.910Z,99586.91
2023-01-08T04:10:15.668Z,99585.44
2023-01-08T04:12:43.372Z,99572.25
2023-01-08T04:15:11.223Z,99571.41
2023-01-08T04:17:39.024Z,99572.25
2023-01-08T04:20:06.888Z,99577.88
2023-01-08T04:22:34.658Z,99570.53
2023-01-08T04:25:02.401Z,99579.59
2023-01-08T04:27:30.182Z,99585.03
2023-01-08T04:29:57.976Z,99583.16
2023-01-08T04:32:25.761Z,99572.44
2023-01-08T04:34:53.599Z,99563.44
2023-01-08T04:37:21.404Z,99570.97
2023-01-08T04:39:49.241Z,99575.38
2023-01-08T04:42:16.981Z,99579.78
2023-01-08T04:44:44.739Z,99569.94
2023-01-08T04:47:12.478Z,99568.88
2023-01-08T04:49:40.234Z,99563.44
2023-01-08T04:52:07.934Z,99564.50
2023-01-08T04:54:35.778Z,99558.19
2023-01-08T04:57:03.544Z,99560.06
2023-01-08T04:59:31.304Z,99566.34
2023-01-08T05:01:59.184Z,99559.88
2023-01-08T05:04:27.099Z,99555.44
2023-01-08T05:06:54.853Z,99554.19
2023-01-08T05:09:22.602Z,99551.28
2023-01-08T05:11:50.386Z,99553.81
2023-01-08T05:14:18.175Z,99554.84
2023-01-08T05:16:45.968Z,99545.63
2023-01-08T05:19:13.727Z,99535.75
2023-01-08T05:21:41.513Z,99542.03
2023-01-08T05:24:09.852Z,99534.09
2023-01-08T05:26:37.579Z,99537.00
2023-01-08T05:29:05.369Z,99535.75
2023-01-08T05:31:33.273Z,99533.03
2023-01-08T05:34:01.145Z,99536.59
2023-01-08T05:36:28.853Z,99524.22
2023-01-08T05:38:56.619Z,99517.31
2023-01-08T05:41:24.375Z,99522.75
2023-01-08T05:43:52.205Z,99517.31
2023-01-08T05:46:20.023Z,99508.94
2023-01-08T05:48:47.844Z,99517.53
2023-01-08T05:51:15.976Z,99520.25
2023-01-08T05:53:43.728Z,99522.34
2023-01-08T05:56:11.677Z,99511.25
2023-01-08T05:58:39.487Z,99508.09
2023-01-08T06:01:07.363Z,99508.50
2023-01-08T06:03:35.132Z,99502.03
2023-01-08T06:06:02.982Z,99518.59
2023-01-08T06:08:30.850Z,99519.84
2023-01-08T06:10:58.608Z,99524.66
2023-01-08T06:13:26.394Z,99522.16
2023-01-08T06:15:54.314Z,99529.47
2023-01-08T06:18:22.173Z,99539.91
2023-01-08T06:20:49.984Z,99534.28
2023-01-08T06:23:17.823Z,99542.59
2023-01-08T06:25:45.609Z,99532.88
2023-01-08T06:28:13.370Z,99536.38
2023-01-08T06:30:41.214Z,99536.56
2023-01-08T06:33:09.070Z,99543.19
2023-01-08T06:35:36.923Z,99538.09
2023-01-08T06:38:04.741Z,99538.34
2023-01-08T06:40:32.502Z,99529.59
2023-01-08T06:43:00.397Z,99532.00
2023-01-08T06:45:28.214Z,99542.50
2023-01-08T06:47:56.017Z,99532.53
2023-01-08T06:50:23.907Z,99525.31
2023-01-08T06:52:51.686Z,99523.22
2023-01-08T06:55:19.435Z,99532.06
2023-01-08T06:57:47.317Z,99529.28
2023-01-08T07:00:15.284Z,99529.31
2023-01-08T07:02:43.255Z,99527.06
2023-01-08T07:05:11.269Z,99524.88
2023-01-08T07:07:39.110Z,99531.97
2023-01-08T07:10:06.999Z,99532.09
2023-01-08T07:12:34.857Z,99512.91
2023-01-08T07:15:02.724Z,99514.25
2023-01-08T07:17:30.474Z,99508.28
2023-01-08T07:19:58.366Z,99497.75
2023-01-08T07:22:26.122Z,99505.38
2023-01-08T07:24:53.868Z,99517.84
2023-01-08T07:27:21.633Z,99530.56
2023-01-08T07:29:49.384Z,99517.28
2023-01-08T07:32:17.217Z,99527.47
2023-01-08T07:34:45.038Z,99515.84
2023-01-08T07:37:12.822Z,99502.78
2023-01-08T07:39:40.537Z,99495.84
2023-01-08T07:42:08.402Z,99490.56
2023-01-08T07:44:36.159Z,99490.25
2023-01-08T07:47:04.027Z,99477.66
2023-01-08T07:49:31.791Z,99467.69
2023-01-08T07:51:59.576Z,99474.59
2023-01-08T07:54:27.423Z,99461.69
2023-01-08T07:56:55.246Z,99459.03
2023-01-08T07:59:23.018Z,99455.25
2023-01-08T08:01:50.922Z,99451.28
2023-01-08T08:04:19.363Z,99468.97
2023-01-08T08:06:47.358Z,99471.63
2023-01-08T08:09:15.210Z,99464.19
2023-01-08T08:11:42.948Z,99468.66
2023-01-08T08:14:10.762Z,99479.13
2023-01-08T08:16:38.575Z,99482.34
2023-01-08T08:19:06.400Z,99487.78
2023-01-08T08:21:34.227Z,99487.38
2023-01-08T08:24:02.339Z,99492.31
2023-01-08T08:26:30.092Z,99493.84
2023-01-08T08:28:57.897Z,99496.81
2023-01-08T08:31:25.734Z,99498.28
2023-01-08T08:33:53.703Z,99502.19
2023-01-08T08:36:21.508Z,99517.34
2023-01-08T08:38:49.393Z,99518.91
2023-01-08T08:41:17.203Z,99523.31
2023-01-08T08:43:45.088Z,99526.53
2023-01-08T08:46:12.887Z,99524.59
2023-01-08T08:48:40.925Z,99520.63
2023-01-08T08:51:08.774Z,99519.38
2023-01-08T08:53:36.701Z,99523.09
2023-01-08T08:56:04.517Z,99516.91
2023-01-08T08:58:32.299Z,99505.03
2023-01-08T09:01:00.165Z,99494.06
2023-01-08T09:03:28.046Z,99494.81
2023-01-08T09:05:57.034Z,99498.25
2023-01-08T09:08:25.592Z,99496.84
2023-01-08T09:10:53.377Z,99506.38
2023-01-08T09:13:21.113Z,99498.72
2023-01-08T09:15:48.996Z,99496.53
2023-01-08T09:18:16.800Z,99491.59
2023-01-08T09:20:44.563Z,99483.31
2023-01-08T09:23:12.287Z,99479.66
2023-01-08T09:25:40.162Z,99490.59
2023-01-08T09:28:08.036Z,99488.34
2023-01-08T09:30:35.810Z,99494.25
2023-01-08T09:33:03.674Z,99491.22
2023-01-08T09:35:32.850Z,99482.41
2023-01-08T09:38:00.660Z,99480.69
2023-01-08T09:40:28.449Z,99480.22
2023-01-08T09:42:56.304Z,99484.72
2023-01-08T09:45:24.300Z,99500.16
2023-01-08T09:47:52.113Z,99498.88
2023-01-08T09:50:19.976Z,99488.31
2023-01-08T09:52:47.858Z,99496.09
2023-01-08T09:55:15.635Z,99492.50
2023-01-08T09:57:43.466Z,99501.91
2023-01-08T10:00:11.268Z,99500.47
2023-01-08T10:02:39.236Z,99498.66
2023-01-08T10:05:07.053Z,99488.94
2023-01-08T10:07:34.833Z,99481.53
2023-01-08T10:10:02.723Z,99471.97
2023-01-08T10:12:30.545Z,99466.16
2023-01-08T10:14:58.405Z,99473.00
2023-01-08T10:17:26.298Z,99463.41
2023-01-08T10:19:54.008Z,99467.53
2023-01-08T10:22:21.955Z,99463.41
2023-01-08T10:24:49.694Z,99468.97
2023-01-08T10:27:17.472Z,99460.00
2023-01-08T10:29:45.370Z,99458.84
2023-01-08T10:32:13.170Z,99453.06
2023-01-08T10:34:46.842Z,99459.81
2023-01-08T10:37:14.591Z,99462.22
2023-01-08T10:39:42.306Z,99454.31
2023-01-08T10:42:10.871Z,99443.19
2023-01-08T10:44:38.672Z,99449.34
2023-01-08T10:47:06.391Z,99452.13
2023-01-08T10:49:34.200Z,99444.59
2023-01-08T10:52:01.991Z,99440.03
2023-01-08T10:54:30.586Z,99440.47
2023-01-08T10:56:58.336Z,99431.25
2023-01-08T10:59:26.266Z,99430.03
2023-01-08T11:01:54.306Z,99419.75
2023-01-08T11:04:22.068Z,99420.00
2023-01-08T11:06:49.838Z,99425.88
2023-01-08T11:09:17.585Z,99415.38
2023-01-08T11:11:45.515Z,99405.09
2023-01-08T11:14:13.295Z,99399.88
2023-01-08T11:16:41.058Z,99395.06
2023-01-08T11:19:08.801Z,99400.75
2023-01-08T11:21:37.205Z,99410.00
2023-01-08T11:24:04.945Z,99397.84
2023-01-08T11:26:32.703Z,99397.22
2023-01-08T11:29:00.482Z,99394.09
2023-01-08T11:31:28.284Z,99382.34
2023-01-08T11:33:57.002Z,99375.41
2023-01-08T11:36:24.757Z,99371.25
2023-01-08T11:38:52.564Z,99365.16
2023-01-08T11:41:20.341Z,99379.03
2023-01-08T11:43:48.098Z,99375.69
2023-01-08T11:46:16.123Z,99369.59
2023-01-08T11:48:43.868Z,99363.53
2023-01-08T11:51:11.727Z,99362.31
2023-01-08T11:53:39.585Z,99365.22
2023-01-08T11:56:07.943Z,99360.00
2023-01-08T11:58:35.850Z,99354.75
2023-01-08T12:01:03.747Z,99347.66
2023-01-08T12:03:31.600Z,99343.22
2023-01-08T12:05:59.396Z,99341.56
2023-01-08T12:08:27.196Z,99336.31
2023-01-08T12:10:54.940Z,99340.94
2023-01-08T12:13:22.705Z,99335.72
2023-01-08T12:15:50.415Z,99342.44
2023-01-08T12:18:18.167Z,99333.00
2023-01-08T12:20:45.895Z,99334.09
2023-01-08T12:23:13.660Z,99331.56
2023-01-08T12:25:41.469Z,99339.13
2023-01-08T12:28:09.225Z,99335.78
2023-01-08T12:30:37.062Z,99342.28
2023-01-08T12:33:04.889Z,99338.09
2023-01-08T12:35:32.585Z,99343.78
2023-01-08T12:38:00.299Z,99334.75
2023-01-08T12:40:28.103Z,99332.25
2023-01-08T12:43:01.250Z,99325.13
2023-01-08T12:45:29.670Z,99331.63
2023-01-08T12:47:57.506Z,99345.28
2023-01-08T12:50:25.259Z,99326.81
2023-01-08T12:52:53.604Z,99325.47
2023-01-08T12:55:21.326Z,99323.66
2023-01-08T12:57:49.171Z,99317.66
2023-01-08T13:00:16.983Z,99320.53
2023-01-08T13:02:44.882Z,99299.00
2023-01-08T13:05:12.799Z,99292.69
2023-01-08T13:07:40.568Z,99290.56
2023-01-08T13:10:08.305Z,99290.94
2023-01-08T13:12:36.064Z,99296.19
2023-01-08T13:15:03.786Z,99297.28
2023-01-08T13:17:31.583Z,99294.75
2023-01-08T13:19:59.386Z,99295.56
2023-01-08T13:22:27.211Z,99294.03
2023-01-08T13:24:55.028Z,99281.38
2023-01-08T13:27:22.826Z,99276.84
2023-01-08T13:29:51.039Z,99279.72
2023-01-08T13:32:18.817Z,99277.69
2023-01-08T13:34:46.554Z,99270.16
2023-01-08T13:37:26.920Z,99269.97
2023-01-08T13:39:55.396Z,99254.78
2023-01-08T13:42:23.499Z,99262.13
2023-01-08T13:44:51.304Z,99252.75
2023-01-08T13:47:19.053Z,99260.34
2023-01-08T13:49:46.773Z,99260.06
2023-01-08T13:52:14.590Z,99252.44
2023-01-08T13:54:42.420Z,99251.94
2023-01-08T13:57:10.180Z,99260.31
2023-01-08T13:59:38.122Z,99247.63
2023-01-08T14:02:06.089Z,99251.59
2023-01-08T14:04:34.037Z,99253.59
2023-01-08T14:07:01.795Z,99254.56
2023-01-08T14:09:29.621Z,99257.72
2023-01-08T14:11:57.378Z,99242.19
2023-01-08T14:14:25.530Z,99236.19
2023-01-08T14:16:53.368Z,99235.88
2023-01-08T14:19:22.279Z,99255.28
2023-01-08T14:21:50.104Z,99249.53
2023-01-08T14:24:17.953Z,99247.00
2023-01-08T14:26:46.943Z,99253.22
2023-01-08T14:29:15.173Z,99237.94
2023-01-08T14:31:43.422Z,99258.41
2023-01-08T14:34:11.308Z,99267.00
2023-01-08T14:36:39.072Z,99266.75
2023-01-08T14:39:06.873Z,99271.19
2023-01-08T14:41:55.637Z,99274.53
2023-01-08T14:44:36.357Z,99283.84
2023-01-08T14:47:05.825Z,99273.41
2023-01-08T14:49:34.343Z,99274.91
2023-01-08T14:52:02.139Z,99272.53
2023-01-08T14:54:30.013Z,99276.84
2023-01-08T14:56:58.528Z,99274.19
2023-01-08T14:59:26.300Z,99267.53
2023-01-08T15:01:54.256Z,99267.75
2023-01-08T15:04:22.106Z,99265.22
2023-01-08T15:06:50.164Z,99269.25
2023-01-08T15:09:17.964Z,99261.19
2023-01-08T15:11:49.275Z,99274.06
2023-01-08T15:14:17.103Z,99255.59
2023-01-08T15:16:44.851Z,99260.16
2023-01-08T15:19:12.630Z,99263.41
2023-01-08T15:21:40.466Z,99269.31
2023-01-08T15:24:08.226Z,99260.25
2023-01-08T15:26:36.088Z,99260.53
2023-01-08T15:29:03.949Z,99268.72
2023-01-08T15:31:31.791Z,99251.09
2023-01-08T15:33:59.649Z,99248.91
2023-01-08T15:36:27.459Z,99246.31
2023-01-08T15:38:55.387Z,99249.69
2023-01-08T15:41:36.961Z,99257.38
2023-01-08T15:44:04.767Z,99260.47
2023-01-08T15:46:32.533Z,99260.69
2023-01-08T15:49:00.296Z,99250.84
2023-01-08T15:51:28.070Z,99259.91
2023-01-08T15:53:55.926Z,99244.22
2023-01-08T15:56:23.679Z,99237.88
2023-01-08T15:58:52.968Z,99221.69
2023-01-08T16:01:20.803Z,99215.41
2023-01-08T16:03:48.750Z,99223.34
2023-01-08T16:06:16.959Z,99215.78
2023-01-08T16:08:46.234Z,99224.66
2023-01-08T16:11:14.411Z,99224.88
2023-01-08T16:13:42.381Z,99226.75
2023-01-08T16:16:10.318Z,99223.19
2023-01-08T16:18:38.128Z,99225.72
2023-01-08T16:21:05.933Z,99222.63
2023-01-08T16:23:33.703Z,99216.78
2023-01-08T16:26:01.456Z,99216.44
2023-01-08T16:28:29.224Z,99226.53
2023-01-08T16:30:56.977Z,99225.72
2023-01-08T16:33:24.767Z,99221.53
2023-01-08T16:35:52.518Z,99223.16
2023-01-08T16:38:20.248Z,99214.69
2023-01-08T16:40:48.013Z,99213.38
2023-01-08T16:43:15.792Z,99207.00
2023-01-08T16:45:43.674Z,99212.81
2023-01-08T16:48:11.462Z,99208.72
2023-01-08T16:50:39.273Z,99210.97
2023-01-08T16:53:07.586Z,99208.16
2023-01-08T16:55:35.391Z,99203.59
2023-01-08T16:58:04.978Z,99199.38
2023-01-08T17:00:32.961Z,99211.06
2023-01-08T17:03:00.752Z,99208.50
2023-01-08T17:05:28.478Z,99215.31
2023-01-08T17:07:56.256Z,99219.34
2023-01-08T17:10:24.018Z,99214.47
2023-01-08T17:12:51.973Z,99210.81
2023-01-08T17:15:19.852Z,99202.03
2023-01-08T17:17:47.658Z,99195.69
2023-01-08T17:20:15.405Z,99193.72
2023-01-08T17:22:43.344Z,99190.09
2023-01-08T17:25:11.087Z,99193.16
2023-01-08T17:27:38.861Z,99198.00
2023-01-08T17:30:06.642Z,99189.91
2023-01-08T17:32:34.386Z,99180.69
2023-01-08T17:35:02.702Z,99175.59
2023-01-08T17:37:30.627Z,99165.25
2023-01-08T17:39:59.141Z,99157.47
2023-01-08T17:42:27.792Z,99171.88
2023-01-08T17:44:57.488Z,99170.41
2023-01-08T17:47:25.475Z,99164.88
2023-01-08T17:49:53.235Z,99163.91
2023-01-08T17:52:21.135Z,99144.16
2023-01-08T17:54:49.166Z,99151.34
2023-01-08T17:57:16.969Z,99151.31
2023-01-08T17:59:44.813Z,99151.50
2023-01-08T18:02:15.713Z,99146.94
2023-01-08T18:04:43.928Z,99139.69
2023-01-08T18:07:11.842Z,99136.19
2023-01-08T18:09:42.716Z,99142.09
2023-01-08T18:12:10.665Z,99138.31
2023-01-08T18:14:39.822Z,99140.66
2023-01-08T18:17:07.586Z,99142.44
2023-01-08T18:19:35.357Z,99139.53
2023-01-08T18:22:03.259Z,99135.34
2023-01-08T18:24:31.058Z,99133.63
2023-01-08T18:26:59.144Z,99140.06
2023-01-08T18:29:27.066Z,99145.47
2023-01-08T18:31:54.926Z,99147.59
2023-01-08T18:34:22.790Z,99144.16
2023-01-08T18:36:50.635Z,99134.50
2023-01-08T18:39:18.384Z,99131.28
2023-01-08T18:42:03.840Z,99122.47
2023-01-08T18:44:31.579Z,99120.09
2023-01-08T18:46:59.362Z,99112.25
2023-01-08T18:49:27.993Z,99112.84
2023-01-08T18:51:55.877Z,99098.56
2023-01-08T18:54:23.974Z,99103.41
2023-01-08T18:56:52.338Z,99105.72
2023-01-08T18:59:20.269Z,99104.75
2023-01-08T19:01:48.074Z,99112.91
2023-01-08T19:04:16.456Z,99110.13
2023-01-08T19:06:44.631Z,99116.97
2023-01-08T19:09:12.483Z,99119.34
2023-01-08T19:11:42.248Z,99107.47
2023-01-08T19:14:10.231Z,99093.59
2023-01-08T19:16:38.070Z,99092.47
2023-01-08T19:19:05.878Z,99092.84
2023-01-08T19:21:34.821Z,99085.34
2023-01-08T19:24:02.600Z,99089.88
2023-01-08T19:26:30.558Z,99080.94
2023-01-08T19:28:58.314Z,99075.19
2023-01-08T19:31:26.182Z,99067.28
2023-01-08T19:33:54.076Z,99076.47
2023-01-08T19:36:21.867Z,99064.81
2023-01-08T19:38:49.680Z,99060.75
2023-01-08T19:41:35.116Z,99057.75
2023-01-08T19:44:02.955Z,99062.91
2023-01-08T19:46:30.667Z,99063.66
2023-01-08T19:48:58.778Z,99056.72
2023-01-08T19:51:26.501Z,99040.06
2023-01-08T19:53:54.333Z,99047.09
2023-01-08T19:56:22.116Z,99045.88
2023-01-08T19:58:50.194Z,99039.19
2023-01-08T20:01:21.086Z,99041.53
2023-01-08T20:03:48.965Z,99038.66
2023-01-08T20:06:19.575Z,99033.19
2023-01-08T20:08:47.356Z,99031.81
2023-01-08T20:11:15.195Z,99023.50
2023-01-08T20:13:42.979Z,99024.00
2023-01-08T20:16:10.893Z,99022.44
2023-01-08T20:18:38.686Z,99029.25
2023-01-08T20:21:06.535Z,99030.09
2023-01-08T20:23:35.915Z,99035.56
2023-01-08T20:26:03.950Z,99032.00
2023-01-08T20:28:33.833Z,99025.66
2023-01-08T20:31:01.834Z,99016.75
2023-01-08T20:33:29.663Z,99022.34
2023-01-08T20:35:57.506Z,99015.59
2023-01-08T20:38:25.504Z,99006.06
2023-01-08T20:40:53.271Z,98997.41
2023-01-08T20:43:21.131Z,99001.59
2023-01-08T20:45:48.985Z,99006.09
2023-01-08T20:48:16.817Z,99010.50
2023-01-08T20:50:47.019Z,99007.31
2023-01-08T20:53:14.986Z,99003.03
2023-01-08T20:55:43.798Z,99010.50
2023-01-08T20:58:11.501Z,99015.50
2023-01-08T21:00:41.644Z,99016.69
2023-01-08T21:03:10.112Z,99005.84
2023-01-08T21:05:39.540Z,99008.06
2023-01-08T21:08:07.310Z,98997.50
2023-01-08T21:10:35.677Z,98999.75
2023-01-08T21:13:03.781Z,98999.00
2023-01-08T21:15:31.617Z,98992.78
2023-01-08T21:17:59.544Z,98987.06
2023-01-08T21:20:27.444Z,98985.03
2023-01-08T21:22:55.151Z,98988.47
2023-01-08T21:25:24.058Z,98980.72
2023-01-08T21:27:51.925Z,98974.06
2023-01-08T21:30:19.774Z,98971.81
2023-01-08T21:32:47.605Z,98972.28
2023-01-08T21:35:15.304Z,98956.59
2023-01-08T21:37:43.098Z,98957.88
2023-01-08T21:40:10.847Z,98958.34
2023-01-08T21:42:56.176Z,98952.47
2023-01-08T21:45:27.595Z,98945.81
2023-01-08T21:47:56.783Z,98942.50
2023-01-08T21:50:25.733Z,98938.31
2023-01-08T21:53:11.322Z,98934.63
2023-01-08T21:55:39.114Z,98932.59
2023-01-08T21:58:23.713Z,98930.94
2023-01-08T22:01:19.650Z,98921.06
2023-01-08T22:03:50.281Z,98921.75
2023-01-08T22:06:33.245Z,98913.19
2023-01-08T22:09:15.962Z,98909.84
2023-01-08T22:12:01.671Z,98918.88
2023-01-08T22:14:36.360Z,98930.03
2023-01-08T22:20:16.092Z,98938.91
2023-01-08T22:22:47.117Z,98933.22
2023-01-08T22:25:15.128Z,98935.34
2023-01-08T22:27:43.118Z,98930.50
2023-01-08T22:32:39.086Z,98922.31
2023-01-08T22:35:09.276Z,98921.44
2023-01-08T22:37:42.235Z,98916.47
2023-01-08T22:40:14.770Z,98913.97
2023-01-08T22:42:42.643Z,98904.34
2023-01-08T22:45:10.425Z,98910.03
2023-01-08T22:47:38.260Z,98900.19
2023-01-08T22:50:08.750Z,98905.41
2023-01-08T22:52:36.609Z,98901.47
2023-01-08T22:55:04.669Z,98899.81
2023-01-08T22:57:32.579Z,98905.25
2023-01-08T23:00:00.435Z,98902.78
2023-01-08T23:02:28.325Z,98902.16
2023-01-08T23:04:56.934Z,98891.25
2023-01-08T23:07:25.176Z,98895.06
2023-01-08T23:09:53.344Z,98881.03
2023-01-08T23:12:21.884Z,98873.91
2023-01-08T23:14:49.809Z,98876.88
2023-01-08T23:17:21.182Z,98881.94
2023-01-08T23:19:49.139Z,98875.06
2023-01-08T23:22:16.979Z,98868.16
2023-01-08T23:24:44.914Z,98862.34
2023-01-08T23:27:12.801Z,98857.94
2023-01-08T23:29:40.598Z,98860.66
2023-01-08T23:32:08.396Z,98853.56
2023-01-08T23:34:43.810Z,98855.69
2023-01-08T23:37:11.640Z,98848.56
2023-01-08T23:39:39.424Z,98841.41
2023-01-08T23:42:09.786Z,98838.69
2023-01-08T23:44:37.611Z,98820.88
2023-01-08T23:47:05.386Z,98828.00
2023-01-08T23:49:33.303Z,98820.66
2023-01-08T23:52:01.123Z,98812.09
2023-01-08T23:54:29.070Z,98807.50
2023-01-08T23:56:56.859Z,98807.50
2023-01-08T23:59:24.987Z,98800.34
